Pilar de la Horadada, Spain
Current Conditions -  °F | °C
As of 10:00 AM on Monday 24 Nov 2014 (Local Time) from LELC Reporting Station
Few Clouds Few Clouds  
Wind Chill: 19°   Ceiling: Unl
Heat Index: 19°   Visibility: 6mi
Dew Point: 14°   Wind: 3mph
Humidity: 73%   Direction: 20°NNE
Pressure: 29.97"   Gusts: NA
Location:  37.87°N, 0.79°W
Report Text: LELC 240900Z 02003KT 350V080 9999 FEW035 19/14 Q1015 NOSIG
Loading
Personal Weather Stations






























Interactive Weather Map New forecast layout! Learn more

10-Day Weather Forecast

Advertisements
Track Severe Weather on mobile